Hauptseite
METAR-TAF:

METAR-TAF

Flughäfen :

Fliegerhorst Diepholz

Diepholz, Deutschland

Breite: 52-35N, Länge: 008-21E, Höhe: 39 m

Beobachtung

Neuester Wetterbericht von vor 1 Stunde und 10 Minuten, um 11:20 UTC
Wind 6 kt aus Nordwest
Temperatur 24°C
Luftfeuchtigkeit 44%
Luftdruck 1018 hPa
Sichtweite 10 km oder mehr
Aufgelockert bewölkt in der Höhe von 4600 ft

METAR: ETND 181120Z 32006KT 9999 SCT046 24/11 Q1018 BLU+

Zeit: 14:30 (12:30 UTC)

Prognose

Neuester Wetterbericht von vor 1 Stunde und 25 Minuten, um 11:05 UTC
Gültige Prognose vom 18 um 11 UTC bis 18 um 20 UTC
Wind 10 kt aus Nordwest
Sichtweite 10 km oder mehr
Aufgelockert bewölkt in der Höhe von 6000 ft

TAF: ETND 181105Z 1811/1820 32010KT 9999 NSW SCT060 CANCEL BY ETGL

Wetterbeobachtungen und Prognosen von mehr als 4000 Flughäfen (METAR und TAF Bericht).

Die verfügbaren Stationen werden durch gelbe und rote Markierungen auf der Karte dargestellt.

Führen Sie die Maus auf sie, um den Namen der Station zu sehen.

Darauf klicken, um die Beobachtung von Wetterbeobachtungen und Prognosen zu sehen.

Um die Karte zu ändern : klicken Sie auf den grünen Tasten mit einem schwarzen Kreuz Zum Vergrößern, auf den grünen Button mit einem Gedankenstrich zu verkleinern, oder auf die grünen Pfeile für benachbarte Karten.


METAR-TAF: